Tennant Creek, Australia
Current Conditions -  °F | °C
As of 1:00 PM on Thursday 29 Jan 2015 (Local Time) from YTNK Reporting Station
Clear Clear  
Wind Chill: 91°   Ceiling: Unl
Heat Index: 91°   Visibility: 6mi
Dew Point: 39°   Wind: 5mph
Humidity: 16%   Direction: 200°SSW
Pressure: 29.77"   Gusts: NA
Location:  19.65°S, 134.19°E
Report Text: YTNK 290400Z AUTO 20004KT 9999 // NCD 33/04 Q1008
Loading
Personal Weather Stations






























Interactive Weather Map New forecast layout! Learn more

10-Day Weather Forecast

Advertisements
Track Severe Weather on mobile